createdAt,value
2022-11-09T00:00:50.910Z,100213.13
2022-11-09T00:03:18.996Z,100204.78
2022-11-09T00:05:56.236Z,100212.16
2022-11-09T00:08:25.555Z,100210.56
2022-11-09T00:10:53.424Z,100216.50
2022-11-09T00:13:21.446Z,100216.28
2022-11-09T00:15:49.806Z,100209.53
2022-11-09T00:18:17.658Z,100211.69
2022-11-09T00:20:47.940Z,100212.75
2022-11-09T00:23:17.212Z,100213.31
2022-11-09T00:25:47.505Z,100212.00
2022-11-09T00:28:15.489Z,100212.66
2022-11-09T00:30:44.554Z,100216.78
2022-11-09T00:33:12.345Z,100212.22
2022-11-09T00:35:40.557Z,100211.38
2022-11-09T00:38:08.390Z,100213.47
2022-11-09T00:40:36.239Z,100217.75
2022-11-09T00:43:05.304Z,100210.25
2022-11-09T00:45:33.077Z,100217.78
2022-11-09T00:48:00.749Z,100211.97
2022-11-09T00:50:28.546Z,100209.94
2022-11-09T00:52:56.263Z,100205.50
2022-11-09T00:55:24.472Z,100210.97
2022-11-09T00:57:52.820Z,100210.47
2022-11-09T01:00:24.255Z,100209.84
2022-11-09T01:02:52.177Z,100212.78
2022-11-09T01:05:20.361Z,100221.81
2022-11-09T01:07:48.069Z,100224.75
2022-11-09T01:10:15.736Z,100219.38
2022-11-09T01:12:43.482Z,100219.69
2022-11-09T01:15:11.513Z,100225.44
2022-11-09T01:17:40.673Z,100224.41
2022-11-09T01:20:09.129Z,100229.56
2022-11-09T01:22:36.949Z,100226.78
2022-11-09T01:25:04.981Z,100234.09
2022-11-09T01:27:33.879Z,100244.81
2022-11-09T01:30:01.576Z,100236.31
2022-11-09T01:32:32.900Z,100239.94
2022-11-09T01:35:02.023Z,100251.69
2022-11-09T01:37:29.769Z,100245.47
2022-11-09T01:39:57.498Z,100245.06
2022-11-09T01:42:26.569Z,100247.56
2022-11-09T01:45:22.563Z,100247.44
2022-11-09T01:47:56.350Z,100251.63
2022-11-09T01:50:33.144Z,100255.59
2022-11-09T01:53:03.493Z,100259.47
2022-11-09T01:55:31.826Z,100258.28
2022-11-09T01:58:02.950Z,100260.66
2022-11-09T02:00:32.878Z,100265.50
2022-11-09T02:03:06.213Z,100261.47
2022-11-09T02:05:36.997Z,100265.59
2022-11-09T02:08:07.800Z,100271.56
2022-11-09T02:10:41.760Z,100274.22
2022-11-09T02:13:11.881Z,100270.16
2022-11-09T02:15:45.247Z,100265.66
2022-11-09T02:18:13.729Z,100267.16
2022-11-09T02:20:48.369Z,100260.72
2022-11-09T02:23:16.498Z,100265.00
2022-11-09T02:25:47.908Z,100270.69
2022-11-09T02:28:17.421Z,100265.53
2022-11-09T02:30:48.432Z,100262.75
2022-11-09T02:33:16.326Z,100257.06
2022-11-09T02:35:44.581Z,100264.75
2022-11-09T02:38:15.316Z,100262.09
2022-11-09T02:40:46.862Z,100262.41
2022-11-09T02:43:16.117Z,100261.91
2022-11-09T02:45:43.923Z,100259.44
2022-11-09T02:48:11.628Z,100263.06
2022-11-09T02:50:39.426Z,100257.84
2022-11-09T02:53:07.223Z,100264.91
2022-11-09T02:55:36.281Z,100262.47
2022-11-09T02:58:04.014Z,100256.03
2022-11-09T03:00:31.681Z,100259.69
2022-11-09T03:02:59.524Z,100259.47
2022-11-09T03:05:27.228Z,100268.69
2022-11-09T03:07:55.025Z,100263.09
2022-11-09T03:10:22.715Z,100264.28
2022-11-09T03:12:51.786Z,100265.13
2022-11-09T03:15:19.603Z,100269.28
2022-11-09T03:17:47.789Z,100261.25
2022-11-09T03:20:15.629Z,100264.50
2022-11-09T03:22:43.313Z,100263.34
2022-11-09T03:25:11.277Z,100262.28
2022-11-09T03:27:38.989Z,100259.28
2022-11-09T03:30:10.354Z,100259.47
2022-11-09T03:32:38.111Z,100258.63
2022-11-09T03:35:06.521Z,100262.38
2022-11-09T03:37:34.344Z,100263.31
2022-11-09T03:40:02.057Z,100265.66
2022-11-09T03:42:29.724Z,100266.97
2022-11-09T03:44:57.431Z,100262.22
2022-11-09T03:47:26.600Z,100267.25
2022-11-09T03:49:54.281Z,100268.22
2022-11-09T03:52:22.687Z,100272.19
2022-11-09T03:54:50.448Z,100274.66
2022-11-09T03:57:18.148Z,100279.16
2022-11-09T03:59:45.893Z,100282.91
2022-11-09T04:02:13.627Z,100279.34
2022-11-09T04:04:42.677Z,100283.09
2022-11-09T04:07:11.547Z,100285.38
2022-11-09T04:09:39.300Z,100298.56
2022-11-09T04:12:07.057Z,100294.91
2022-11-09T04:14:34.785Z,100296.75
2022-11-09T04:17:02.477Z,100304.44
2022-11-09T04:19:30.198Z,100299.59
2022-11-09T04:21:59.257Z,100313.84
2022-11-09T04:24:26.931Z,100323.25
2022-11-09T04:26:54.666Z,100325.69
2022-11-09T04:29:22.399Z,100332.00
2022-11-09T04:31:50.649Z,100339.22
2022-11-09T04:34:18.908Z,100338.03
2022-11-09T04:36:46.678Z,100338.84
2022-11-09T04:39:16.041Z,100339.22
2022-11-09T04:41:43.734Z,100347.50
2022-11-09T04:44:11.511Z,100339.13
2022-11-09T04:46:39.253Z,100350.88
2022-11-09T04:49:06.933Z,100346.25
2022-11-09T04:51:34.727Z,100354.78
2022-11-09T04:54:02.535Z,100349.00
2022-11-09T04:56:31.623Z,100354.97
2022-11-09T04:58:59.375Z,100358.59
2022-11-09T05:01:27.085Z,100358.81
2022-11-09T05:03:54.929Z,100356.56
2022-11-09T05:06:34.696Z,100356.06
2022-11-09T05:09:03.858Z,100365.63
2022-11-09T05:11:34.134Z,100365.84
2022-11-09T05:14:02.751Z,100366.41
2022-11-09T05:16:30.856Z,100369.03
2022-11-09T05:18:58.532Z,100369.44
2022-11-09T05:21:26.266Z,100375.38
2022-11-09T05:23:58.921Z,100370.09
2022-11-09T05:26:33.076Z,100380.91
2022-11-09T05:29:01.563Z,100379.25
2022-11-09T05:31:29.786Z,100382.25
2022-11-09T05:33:59.334Z,100384.63
2022-11-09T05:36:28.289Z,100380.56
2022-11-09T05:38:56.551Z,100372.56
2022-11-09T05:41:24.557Z,100385.09
2022-11-09T05:43:53.819Z,100386.53
2022-11-09T05:46:21.506Z,100376.13
2022-11-09T05:48:49.361Z,100379.31
2022-11-09T05:51:17.251Z,100387.75
2022-11-09T05:53:46.771Z,100389.84
2022-11-09T05:56:15.787Z,100392.38
2022-11-09T05:58:44.237Z,100394.75
2022-11-09T06:01:15.417Z,100392.44
2022-11-09T06:03:44.212Z,100396.34
2022-11-09T06:06:14.577Z,100391.03
2022-11-09T06:08:42.592Z,100401.69
2022-11-09T06:11:11.945Z,100410.28
2022-11-09T06:13:39.745Z,100400.94
2022-11-09T06:16:08.326Z,100405.09
2022-11-09T06:18:37.940Z,100408.72
2022-11-09T06:21:07.036Z,100415.75
2022-11-09T06:23:34.949Z,100421.63
2022-11-09T06:26:06.319Z,100422.25
2022-11-09T06:28:34.717Z,100424.63
2022-11-09T06:31:03.768Z,100416.38
2022-11-09T06:33:32.946Z,100424.06
2022-11-09T06:36:02.363Z,100430.00
2022-11-09T06:38:30.384Z,100425.88
2022-11-09T06:41:00.470Z,100434.03
2022-11-09T06:43:28.834Z,100439.63
2022-11-09T06:45:56.772Z,100436.88
2022-11-09T06:48:24.673Z,100442.13
2022-11-09T06:50:52.374Z,100449.16
2022-11-09T06:53:22.014Z,100442.81
2022-11-09T06:55:51.000Z,100443.75
2022-11-09T06:58:20.783Z,100460.47
2022-11-09T07:00:48.620Z,100465.50
2022-11-09T07:03:17.159Z,100470.53
2022-11-09T07:05:45.433Z,100477.09
2022-11-09T07:08:13.501Z,100474.91
2022-11-09T07:10:43.012Z,100486.00
2022-11-09T07:13:11.501Z,100490.16
2022-11-09T07:15:39.883Z,100492.69
2022-11-09T07:18:09.468Z,100494.78
2022-11-09T07:20:38.952Z,100504.25
2022-11-09T07:23:06.717Z,100503.78
2022-11-09T07:25:34.991Z,100506.84
2022-11-09T07:28:09.481Z,100512.28
2022-11-09T07:30:37.977Z,100512.31
2022-11-09T07:33:12.480Z,100515.56
2022-11-09T07:35:40.248Z,100513.38
2022-11-09T07:38:08.393Z,100521.34
2022-11-09T07:40:36.641Z,100525.00
2022-11-09T07:43:06.398Z,100522.38
2022-11-09T07:45:36.728Z,100528.31
2022-11-09T07:48:07.060Z,100534.03
2022-11-09T07:50:35.867Z,100551.22
2022-11-09T07:53:05.494Z,100554.56
2022-11-09T07:55:33.277Z,100568.59
2022-11-09T07:58:03.282Z,100564.72
2022-11-09T08:00:33.385Z,100572.28
2022-11-09T08:03:03.017Z,100573.94
2022-11-09T08:05:31.088Z,100575.84
2022-11-09T08:08:00.091Z,100579.97
2022-11-09T08:10:29.250Z,100581.75
2022-11-09T08:12:58.150Z,100588.97
2022-11-09T08:15:26.813Z,100598.63
2022-11-09T08:17:54.616Z,100610.84
2022-11-09T08:20:23.704Z,100615.59
2022-11-09T08:22:51.377Z,100617.00
2022-11-09T08:25:19.160Z,100622.50
2022-11-09T08:27:47.115Z,100623.50
2022-11-09T08:30:17.378Z,100625.88
2022-11-09T08:32:45.676Z,100628.88
2022-11-09T08:35:17.646Z,100632.97
2022-11-09T08:37:47.882Z,100642.94
2022-11-09T08:40:18.282Z,100647.69
2022-11-09T08:42:46.394Z,100649.38
2022-11-09T08:45:14.933Z,100650.03
2022-11-09T08:47:42.937Z,100658.09
2022-11-09T08:50:12.071Z,100651.72
2022-11-09T08:52:40.842Z,100660.34
2022-11-09T08:55:10.676Z,100665.72
2022-11-09T08:57:38.424Z,100660.78
2022-11-09T09:00:07.729Z,100665.81
2022-11-09T09:02:35.610Z,100667.44
2022-11-09T09:05:03.291Z,100666.66
2022-11-09T09:07:31.068Z,100675.63
2022-11-09T09:09:58.783Z,100676.75
2022-11-09T09:12:27.908Z,100679.69
2022-11-09T09:14:55.620Z,100679.81
2022-11-09T09:17:23.371Z,100689.47
2022-11-09T09:19:51.068Z,100687.69
2022-11-09T09:22:19.720Z,100697.97
2022-11-09T09:24:47.541Z,100705.19
2022-11-09T09:27:15.556Z,100703.97
2022-11-09T09:29:44.716Z,100710.00
2022-11-09T09:32:12.462Z,100709.97
2022-11-09T09:34:40.144Z,100708.66
2022-11-09T09:37:08.062Z,100706.81
2022-11-09T09:39:35.810Z,100724.53
2022-11-09T09:42:07.445Z,100720.06
2022-11-09T09:44:41.736Z,100725.88
2022-11-09T09:47:14.316Z,100730.81
2022-11-09T09:49:45.873Z,100737.66
2022-11-09T09:52:21.440Z,100735.97
2022-11-09T09:54:55.736Z,100735.13
2022-11-09T09:57:24.361Z,100743.44
2022-11-09T09:59:53.998Z,100751.19
2022-11-09T10:02:25.705Z,100754.22
2022-11-09T10:04:56.228Z,100754.53
2022-11-09T10:07:29.596Z,100755.22
2022-11-09T10:10:17.521Z,100760.50
2022-11-09T10:13:06.792Z,100765.94
2022-11-09T10:15:42.012Z,100758.31
2022-11-09T10:18:28.268Z,100774.47
2022-11-09T10:21:15.937Z,100771.25
2022-11-09T10:23:56.211Z,100781.16
2022-11-09T10:26:28.571Z,100779.19
2022-11-09T10:29:15.562Z,100790.72
2022-11-09T10:31:46.924Z,100793.44
2022-11-09T10:34:19.809Z,100795.78
2022-11-09T10:36:55.749Z,100810.31
2022-11-09T10:39:26.057Z,100804.63
2022-11-09T10:41:53.842Z,100815.00
2022-11-09T10:44:21.645Z,100801.44
2022-11-09T10:47:08.012Z,100812.31
2022-11-09T10:49:38.119Z,100814.06
2022-11-09T10:52:06.914Z,100810.63
2022-11-09T10:54:37.840Z,100819.44
2022-11-09T10:57:15.748Z,100818.06
2022-11-09T10:59:50.589Z,100829.88
2022-11-09T11:02:41.710Z,100837.59
2022-11-09T11:05:35.839Z,100832.19
2022-11-09T11:08:23.480Z,100829.44
2022-11-09T11:11:02.136Z,100838.66
2022-11-09T11:13:34.649Z,100840.88
2022-11-09T11:16:02.524Z,100836.88
2022-11-09T11:18:32.844Z,100841.16
2022-11-09T11:21:19.019Z,100831.13
2022-11-09T11:24:09.804Z,100826.25
2022-11-09T11:26:41.662Z,100832.56
2022-11-09T11:29:25.635Z,100834.72
2022-11-09T11:31:53.476Z,100832.94
2022-11-09T11:34:45.676Z,100839.91
2022-11-09T11:37:24.213Z,100843.91
2022-11-09T11:40:01.059Z,100844.88
2022-11-09T11:42:54.684Z,100852.75
2022-11-09T11:45:41.642Z,100847.34
2022-11-09T11:48:28.811Z,100849.63
2022-11-09T11:51:04.538Z,100845.16
2022-11-09T11:53:49.165Z,100856.47
2022-11-09T11:56:24.142Z,100847.16
2022-11-09T11:59:30.280Z,100856.22
2022-11-09T12:02:22.489Z,100857.69
2022-11-09T12:05:26.117Z,100856.78
2022-11-09T12:08:02.440Z,100856.16
2022-11-09T12:10:45.832Z,100856.44
2022-11-09T12:13:36.112Z,100855.41
2022-11-09T12:16:09.203Z,100863.94
2022-11-09T12:18:48.744Z,100860.22
2022-11-09T12:21:18.599Z,100865.47
2022-11-09T12:24:11.441Z,100864.88
2022-11-09T12:27:17.974Z,100861.31
2022-11-09T12:29:49.562Z,100857.56
2022-11-09T12:32:25.963Z,100860.28
2022-11-09T12:34:59.290Z,100859.84
2022-11-09T12:37:29.155Z,100869.38
2022-11-09T12:40:05.310Z,100866.06
2022-11-09T12:42:38.428Z,100878.59
2022-11-09T12:45:19.662Z,100877.56
2022-11-09T12:47:47.362Z,100879.59
2022-11-09T12:50:18.151Z,100887.19
2022-11-09T12:52:48.404Z,100892.84
2022-11-09T12:55:19.531Z,100885.22
2022-11-09T12:57:49.546Z,100892.19
2022-11-09T13:00:49.834Z,100898.88
2022-11-09T13:03:24.010Z,100907.63
2022-11-09T13:06:16.465Z,100906.13
2022-11-09T13:08:56.593Z,100896.66
2022-11-09T13:11:35.769Z,100895.41
2022-11-09T13:14:34.412Z,100909.00
2022-11-09T13:17:23.187Z,100908.19
2022-11-09T13:19:54.222Z,100907.44
2022-11-09T13:23:00.768Z,100911.13
2022-11-09T13:25:48.160Z,100905.59
2022-11-09T13:28:44.060Z,100909.41
2022-11-09T13:31:13.614Z,100911.69
2022-11-09T13:33:42.237Z,100916.47
2022-11-09T13:36:20.120Z,100916.59
2022-11-09T13:39:08.949Z,100915.25
2022-11-09T13:41:44.725Z,100912.81
2022-11-09T13:44:34.206Z,100918.25
2022-11-09T13:47:06.798Z,100912.47
2022-11-09T13:49:55.354Z,100905.47
2022-11-09T13:52:48.784Z,100911.38
2022-11-09T13:55:27.084Z,100913.16
2022-11-09T13:57:56.749Z,100911.47
2022-11-09T14:00:26.734Z,100908.69
2022-11-09T14:02:58.534Z,100908.97
2022-11-09T14:05:29.039Z,100909.72
2022-11-09T14:07:57.005Z,100906.91
2022-11-09T14:10:37.423Z,100911.22
2022-11-09T14:13:16.075Z,100922.59
2022-11-09T14:15:50.704Z,100927.84
2022-11-09T14:18:30.202Z,100925.38
2022-11-09T14:21:16.271Z,100927.44
2022-11-09T14:23:44.372Z,100941.38
2022-11-09T14:26:24.184Z,100951.41
2022-11-09T14:28:52.177Z,100949.59
2022-11-09T14:31:28.317Z,100960.41
2022-11-09T14:34:05.873Z,100958.63
2022-11-09T14:36:36.262Z,100967.06
2022-11-09T14:39:07.384Z,100963.38
2022-11-09T14:41:36.230Z,100975.47
2022-11-09T14:44:04.028Z,100981.03
2022-11-09T14:46:32.789Z,100980.41
2022-11-09T14:49:04.108Z,100977.19
2022-11-09T14:51:34.865Z,100976.94
2022-11-09T14:54:03.617Z,100981.50
2022-11-09T14:56:33.845Z,100986.78
2022-11-09T14:59:05.444Z,100991.53
2022-11-09T15:01:33.155Z,100992.84
2022-11-09T15:04:11.011Z,100988.56
2022-11-09T15:06:47.324Z,100993.00
2022-11-09T15:09:20.334Z,101002.97
2022-11-09T15:11:48.658Z,100999.94
2022-11-09T15:14:26.343Z,101004.56
2022-11-09T15:17:00.172Z,101003.75
2022-11-09T15:19:32.326Z,101008.75
2022-11-09T15:22:01.724Z,101012.22
2022-11-09T15:24:30.792Z,101014.97
2022-11-09T15:26:58.775Z,101019.56
2022-11-09T15:29:36.429Z,101023.97
2022-11-09T15:32:14.954Z,101023.97
2022-11-09T15:34:53.569Z,101026.50
2022-11-09T15:37:25.058Z,101028.16
2022-11-09T15:39:53.353Z,101033.88
2022-11-09T15:42:21.958Z,101037.75
2022-11-09T15:44:53.329Z,101034.44
2022-11-09T15:47:25.099Z,101041.81
2022-11-09T15:49:54.229Z,101046.91
2022-11-09T15:52:21.933Z,101050.78
2022-11-09T15:54:49.751Z,101047.25
2022-11-09T15:57:19.457Z,101054.44
2022-11-09T15:59:48.135Z,101055.13
2022-11-09T16:02:18.864Z,101050.34
2022-11-09T16:04:46.700Z,101056.44
2022-11-09T16:07:17.175Z,101052.88
2022-11-09T16:09:44.944Z,101059.66
2022-11-09T16:12:12.652Z,101052.16
2022-11-09T16:14:41.308Z,101061.84
2022-11-09T16:17:09.072Z,101059.50
2022-11-09T16:19:37.009Z,101058.63
2022-11-09T16:22:05.176Z,101071.00
2022-11-09T16:24:34.192Z,101071.44
2022-11-09T16:27:03.258Z,101082.94
2022-11-09T16:29:35.154Z,101081.00
2022-11-09T16:32:02.848Z,101084.22
2022-11-09T16:34:30.613Z,101082.84
2022-11-09T16:36:59.405Z,101092.09
2022-11-09T16:39:27.371Z,101105.09
2022-11-09T16:41:56.628Z,101106.50
2022-11-09T16:44:25.213Z,101110.16
2022-11-09T16:46:53.133Z,101122.09
2022-11-09T16:49:20.833Z,101119.63
2022-11-09T16:51:48.596Z,101128.56
2022-11-09T16:54:16.369Z,101133.31
2022-11-09T16:56:44.298Z,101143.34
2022-11-09T16:59:13.485Z,101142.47
2022-11-09T17:01:41.386Z,101143.63
2022-11-09T17:04:09.534Z,101144.41
2022-11-09T17:06:37.369Z,101151.03
2022-11-09T17:09:05.288Z,101161.81
2022-11-09T17:11:33.500Z,101170.75
2022-11-09T17:14:01.437Z,101187.03
2022-11-09T17:16:30.593Z,101180.22
2022-11-09T17:18:58.876Z,101186.06
2022-11-09T17:21:28.351Z,101191.06
2022-11-09T17:23:57.544Z,101194.69
2022-11-09T17:26:26.282Z,101201.91
2022-11-09T17:28:54.023Z,101201.41
2022-11-09T17:31:24.083Z,101215.94
2022-11-09T17:33:57.064Z,101213.91
2022-11-09T17:36:49.200Z,101215.81
2022-11-09T17:39:16.268Z,101227.69
2022-11-09T17:41:44.157Z,101217.81
2022-11-09T17:44:11.860Z,101225.75
2022-11-09T17:46:39.592Z,101221.34
2022-11-09T17:49:10.360Z,101228.03
2022-11-09T17:51:38.411Z,101237.16
2022-11-09T17:54:06.494Z,101237.34
2022-11-09T17:56:34.886Z,101234.00
2022-11-09T17:59:04.920Z,101240.91
2022-11-09T18:01:36.565Z,101248.97
2022-11-09T18:04:10.815Z,101250.19
2022-11-09T18:06:39.396Z,101251.75
2022-11-09T18:11:54.997Z,101257.78
2022-11-09T18:14:22.732Z,101262.47
2022-11-09T18:16:50.424Z,101268.91
2022-11-09T18:19:19.541Z,101268.97
2022-11-09T18:21:47.357Z,101269.00
2022-11-09T18:24:15.150Z,101268.75
2022-11-09T18:26:43.066Z,101273.59
2022-11-09T18:29:10.773Z,101272.22
2022-11-09T18:31:38.520Z,101279.00
2022-11-09T18:34:06.189Z,101272.41
2022-11-09T18:36:35.345Z,101284.16
2022-11-09T18:39:03.378Z,101284.91
2022-11-09T18:41:31.265Z,101284.66
2022-11-09T18:43:59.210Z,101292.97
2022-11-09T18:46:30.599Z,101295.88
2022-11-09T18:48:58.305Z,101300.69
2022-11-09T18:51:26.129Z,101308.06
2022-11-09T18:53:55.175Z,101308.75
2022-11-09T18:56:24.847Z,101310.91
2022-11-09T18:58:54.357Z,101311.69
2022-11-09T19:01:24.029Z,101308.56
2022-11-09T19:03:57.799Z,101310.38
2022-11-09T19:06:27.014Z,101317.13
2022-11-09T19:09:13.627Z,101321.31
2022-11-09T19:11:41.764Z,101326.22
2022-11-09T19:14:10.036Z,101321.13
2022-11-09T19:16:37.918Z,101324.66
2022-11-09T19:19:05.703Z,101322.91
2022-11-09T19:21:39.970Z,101324.16
2022-11-09T19:24:12.904Z,101332.03
2022-11-09T19:26:40.645Z,101331.41
2022-11-09T19:29:09.506Z,101326.28
2022-11-09T19:31:38.343Z,101330.78
2022-11-09T19:34:06.138Z,101335.59
2022-11-09T19:36:34.681Z,101333.78
2022-11-09T19:39:02.752Z,101338.06
2022-11-09T19:41:31.969Z,101334.19
2022-11-09T19:44:00.344Z,101341.22
2022-11-09T19:46:30.421Z,101343.50
2022-11-09T19:48:58.581Z,101346.06
2022-11-09T19:51:29.262Z,101354.16
2022-11-09T19:53:58.469Z,101354.69
2022-11-09T19:56:28.552Z,101351.44
2022-11-09T19:58:58.998Z,101353.72
2022-11-09T20:01:27.257Z,101359.97
2022-11-09T20:03:56.993Z,101370.69
2022-11-09T20:06:25.656Z,101367.75
2022-11-09T20:08:53.809Z,101381.56
2022-11-09T20:11:41.097Z,101388.31
2022-11-09T20:14:11.567Z,101384.53
2022-11-09T20:16:40.588Z,101385.78
2022-11-09T20:19:11.161Z,101392.69
2022-11-09T20:21:40.177Z,101396.31
2022-11-09T20:24:11.017Z,101412.81
2022-11-09T20:26:39.089Z,101414.84
2022-11-09T20:29:06.833Z,101425.00
2022-11-09T20:31:37.108Z,101431.06
2022-11-09T20:34:04.923Z,101429.34
2022-11-09T20:36:33.033Z,101434.34
2022-11-09T20:39:00.713Z,101439.09
2022-11-09T20:41:29.471Z,101446.28
2022-11-09T20:43:57.186Z,101447.28
2022-11-09T20:46:25.689Z,101449.50
2022-11-09T20:48:55.813Z,101451.41
2022-11-09T20:51:25.188Z,101453.44
2022-11-09T20:53:53.177Z,101453.84
2022-11-09T20:56:21.594Z,101459.03
2022-11-09T20:58:49.626Z,101473.38
2022-11-09T21:01:19.353Z,101465.34
2022-11-09T21:03:47.905Z,101464.38
2022-11-09T21:06:17.072Z,101473.56
2022-11-09T21:08:46.133Z,101470.72
2022-11-09T21:11:14.369Z,101475.38
2022-11-09T21:13:43.913Z,101478.75
2022-11-09T21:16:13.632Z,101479.13
2022-11-09T21:18:41.824Z,101483.06
2022-11-09T21:21:11.299Z,101487.09
2022-11-09T21:23:58.759Z,101490.03
2022-11-09T21:26:44.559Z,101483.34
2022-11-09T21:29:32.818Z,101490.38
2022-11-09T21:32:01.014Z,101490.97
2022-11-09T21:34:34.030Z,101496.44
2022-11-09T21:37:04.443Z,101495.88
2022-11-09T21:39:33.733Z,101494.31
2022-11-09T21:42:01.925Z,101505.03
2022-11-09T21:44:31.046Z,101513.63
2022-11-09T21:46:59.187Z,101515.25
2022-11-09T21:49:26.901Z,101516.84
2022-11-09T21:51:55.101Z,101526.97
2022-11-09T21:54:23.744Z,101525.88
2022-11-09T21:56:53.618Z,101526.56
2022-11-09T21:59:21.443Z,101530.66
2022-11-09T22:01:49.274Z,101535.84
2022-11-09T22:04:17.223Z,101535.13
2022-11-09T22:06:45.060Z,101530.16
2022-11-09T22:09:16.601Z,101535.75
2022-11-09T22:12:02.147Z,101543.25
2022-11-09T22:14:48.831Z,101537.53
2022-11-09T22:17:16.903Z,101544.03
2022-11-09T22:20:01.955Z,101547.84
2022-11-09T22:22:31.225Z,101553.19
2022-11-09T22:24:58.986Z,101546.22
2022-11-09T22:27:26.875Z,101543.75
2022-11-09T22:29:56.000Z,101548.78
2022-11-09T22:32:23.702Z,101552.56
2022-11-09T22:34:51.565Z,101563.22
2022-11-09T22:37:19.404Z,101553.88
2022-11-09T22:39:47.772Z,101553.13
2022-11-09T22:42:15.769Z,101558.94
2022-11-09T22:44:43.567Z,101560.25
2022-11-09T22:47:13.317Z,101556.31
2022-11-09T22:49:40.996Z,101562.16
2022-11-09T22:52:09.441Z,101555.69
2022-11-09T22:54:37.134Z,101556.06
2022-11-09T22:57:05.160Z,101562.00
2022-11-09T22:59:32.880Z,101563.81
2022-11-09T23:02:00.642Z,101559.28
2022-11-09T23:04:29.826Z,101560.09
2022-11-09T23:06:57.659Z,101561.78
2022-11-09T23:09:25.389Z,101570.19
2022-11-09T23:11:53.083Z,101571.50
2022-11-09T23:14:40.929Z,101579.06
2022-11-09T23:17:28.620Z,101572.19
2022-11-09T23:19:56.753Z,101572.06
2022-11-09T23:22:24.460Z,101572.97
2022-11-09T23:25:09.459Z,101574.53
2022-11-09T23:27:37.216Z,101582.66
2022-11-09T23:30:05.905Z,101577.44
2022-11-09T23:32:33.676Z,101587.94
2022-11-09T23:35:02.696Z,101594.03
2022-11-09T23:37:30.636Z,101598.56
2022-11-09T23:39:58.332Z,101596.00
2022-11-09T23:42:26.140Z,101605.00
2022-11-09T23:44:53.824Z,101608.84
2022-11-09T23:47:21.566Z,101610.00
2022-11-09T23:49:49.349Z,101609.69
2022-11-09T23:52:18.561Z,101614.56
2022-11-09T23:54:46.590Z,101612.31
2022-11-09T23:57:14.564Z,101620.97
2022-11-09T23:59:42.299Z,101617.06
